EVRAEFTU

Guest
Details From EVRA - Riga Intl
To EFTU - Turku
Flight Number -
Tags generated
Created
Modified
Stats Distance 224 nm / 416 km
Max Altitude 24,400 ft / 7,437 m
Waypoints 4
Social Downloads 1
Likes 0
Share VATSIM

Download

Looking for another format? Having issues loading an existing format? Contact us
Advertisement - Login to hide

Notes

Basic altitude profile: - Ascent Rate: 2500ft/min - Ascent Speed: 250kts - Cruise Altitude: 35000ft - Cruise Speed: 420kts - Descent Rate: 1500ft/min - Descent Speed: 250kts Options: - Use NATs: yes - Use PACOTS: yes - Use low airways: yes - Use high airways: no

Route

EVRA MASIS ODVIN EFTU

ID Type Via Altitude Latitude Longitude Leg Dist Tot Dist Heading (true) Name
O EVRA APT - 0 ft / 0 m 56.92366˚ 23.97119˚ - 0 nm - Riga Intl
MASIS FIX - 24,400 ft / 7,437 m 58.65583˚ 23.36917˚ 105 nm 105 nm 350° / 349° -
ODVIN FIX - 22,100 ft / 6,736 m 58.83472˚ 23.02583˚ 15 nm 120 nm 315° / 315° -
O EFTU APT - 0 ft / 0 m 60.51412˚ 22.26281˚ 103 nm 224 nm 347° / 347° Turku

Altitude Profile

Advertisement - Login to hide

Weather


0- 5 10 15 20 25 30 35+ Temperature / ° C

Clouds and Precipitation
Forecast for 2018-05-26 00:00 UTC. Updated 6 hours ago

Ground ~20,000 ft ~40,000 ft Winds

EVRA

Details ICAO EVRA (RIX)
Name Riga Intl
Region Latvia
Timezone Europe/Riga (UTC+3.0)
Stats Elevation 34 ft / 10 m (AMSL)
Location 56.923662° 23.971193°
Runways 1
Magnetic Variation 7.720° E

METAR

EVRA 260420Z 12003KT 030V190 CAVOK 16/10 Q1028 NOSIG

Decode

TAF

TAF EVRA 260205Z 2603/2703 09005KT CAVOK TEMPO 2623/2703 0600 FG BKN002

Decode

Departure Runways

ID Width Length Bearing (true) Bearing (mag) Surface Threshold Offset Overrun Length
18 148 ft / 45 m 8,358 ft / 2,548 m 185.15° 177.43° Asphalt 0 ft / 0 m 170 ft / 52 m
36 148 ft / 45 m 8,358 ft / 2,548 m 5.14° 357.42° Asphalt 0 ft / 0 m 170 ft / 52 m

EFTU

Details ICAO EFTU (TKU)
Name Turku
Region Finland
Timezone Europe/Helsinki (UTC+3.0)
Stats Elevation 161 ft / 49 m (AMSL)
Location 60.514115° 22.262812°
Runways 1
Magnetic Variation 8.046° E

METAR

EFTU 260420Z AUTO VRB02KT CAVOK 14/06 Q1029

Decode

TAF

TAF EFTU 260236Z 2603/2703 22003KT CAVOK

Decode

Destination Runways

ID Width Length Bearing (true) Bearing (mag) Surface Threshold Offset Overrun Length
08 197 ft / 60 m 8,175 ft / 2,492 m 84.82° 76.77° Asphalt 0 ft / 0 m 0 ft / 0 m
26 197 ft / 60 m 8,175 ft / 2,492 m 264.86° 256.81° Asphalt 0 ft / 0 m 0 ft / 0 m

Approach Navaids

Runway Type Ident Frequency Range Bearing (true) Bearing (mag) Slope Elevation
26 Localiser TU 109.50 MHz 18 nm / 33 km 264.82° 256.77° - 161 ft / 49 m (AMSL)
26 Glidescope TU 109.50 MHz 10 nm / 19 km 264.84° 256.80° 3.00° 161 ft / 49 m (AMSL)
26 DME TU 109.50 MHz 18 nm / 33 km - - - 200 ft / 61 m (AMSL)

Popular Alternatives